Palisades, Idaho
Current Conditions -  °F | °C
As of 5:56 PM on Saturday 20 Dec 2014 (Local Time) from KDIJ Reporting Station
Overcast Overcast  
Wind Chill: 22°   Ceiling: 3500
Heat Index: 31°   Visibility: 10mi
Dew Point: 28°   Wind: 10mph
Humidity: 88%   Direction: 160°SSE
Pressure: 29.97"   Gusts: NA
Location:  43.4056°N, 111.297°W
Report Text: KDIJ 210056Z AUTO 16009KT 10SM FEW001 OVC035 M01/M02 A2997 RMK AO2 T10051022 UPE25SNB25E51 P0000 SLP143
Loading
Personal Weather Stations






























Interactive Weather Map New forecast layout! Learn more

10-Day Weather Forecast

Advertisements
Track Severe Weather on mobile